createdAt,value
2023-01-27T00:00:53.262Z,95912.28
2023-01-27T00:01:54.885Z,95916.97
2023-01-27T00:02:56.428Z,95913.09
2023-01-27T00:03:58.033Z,95921.97
2023-01-27T00:04:59.709Z,95917.78
2023-01-27T00:06:01.433Z,95919.03
2023-01-27T00:07:03.076Z,95919.69
2023-01-27T00:08:04.738Z,95915.16
2023-01-27T00:09:06.327Z,95920.59
2023-01-27T00:10:09.577Z,95915.44
2023-01-27T00:11:29.536Z,95920.16
2023-01-27T00:12:49.845Z,95913.28
2023-01-27T00:13:51.443Z,95907.97
2023-01-27T00:14:53.019Z,95904.06
2023-01-27T00:15:55.412Z,95901.91
2023-01-27T00:16:57.119Z,95904.56
2023-01-27T00:17:58.735Z,95909.06
2023-01-27T00:19:00.257Z,95915.16
2023-01-27T00:20:03.923Z,95915.16
2023-01-27T00:21:24.178Z,95918.75
2023-01-27T00:22:44.352Z,95913.28
2023-01-27T00:24:04.364Z,95922.78
2023-01-27T00:25:06.203Z,95911.75
2023-01-27T00:26:11.959Z,95912.19
2023-01-27T00:27:13.575Z,95914.53
2023-01-27T00:28:23.000Z,95922.50
2023-01-27T00:29:24.615Z,95919.38
2023-01-27T00:30:26.097Z,95925.16
2023-01-27T00:31:46.183Z,95926.72
2023-01-27T00:33:06.414Z,95922.81
2023-01-27T00:34:10.993Z,95920.63
2023-01-27T00:35:12.775Z,95930.31
2023-01-27T00:36:14.352Z,95929.66
2023-01-27T00:37:16.535Z,95929.38
2023-01-27T00:38:18.075Z,95934.81
2023-01-27T00:39:19.607Z,95934.81
2023-01-27T00:40:21.170Z,95927.94
2023-01-27T00:41:23.498Z,95933.72
2023-01-27T00:42:25.140Z,95927.34
2023-01-27T00:43:26.665Z,95925.78
2023-01-27T00:44:28.413Z,95927.63
2023-01-27T00:45:48.670Z,95928.56
2023-01-27T00:46:50.588Z,95939.34
2023-01-27T00:47:52.967Z,95942.00
2023-01-27T00:48:54.561Z,95939.81
2023-01-27T00:49:56.133Z,95938.25
2023-01-27T00:50:57.754Z,95938.88
2023-01-27T00:51:59.271Z,95944.19
2023-01-27T00:53:02.364Z,95938.25
2023-01-27T00:54:05.117Z,95936.06
2023-01-27T00:55:07.891Z,95937.63
2023-01-27T00:56:09.866Z,95938.88
2023-01-27T00:57:11.415Z,95948.38
2023-01-27T00:58:13.408Z,95946.22
2023-01-27T00:59:14.957Z,95942.94
2023-01-27T01:00:17.335Z,95945.25
2023-01-27T01:01:19.090Z,95938.22
2023-01-27T01:02:20.634Z,95929.19
2023-01-27T01:03:22.999Z,95931.53
2023-01-27T01:04:24.566Z,95930.91
2023-01-27T01:05:26.140Z,95936.03
2023-01-27T01:06:28.094Z,95936.16
2023-01-27T01:07:29.639Z,95947.25
2023-01-27T01:08:33.189Z,95943.97
2023-01-27T01:09:34.752Z,95945.25
2023-01-27T01:10:38.961Z,95942.25
2023-01-27T01:11:40.508Z,95941.31
2023-01-27T01:12:42.042Z,95935.09
2023-01-27T01:13:44.576Z,95934.75
2023-01-27T01:14:46.201Z,95932.88
2023-01-27T01:15:48.181Z,95932.25
2023-01-27T01:16:49.741Z,95927.09
2023-01-27T01:17:51.290Z,95920.38
2023-01-27T01:18:53.401Z,95924.91
2023-01-27T01:19:54.947Z,95931.94
2023-01-27T01:20:56.484Z,95932.72
2023-01-27T01:21:57.987Z,95925.72
2023-01-27T01:22:59.539Z,95928.72
2023-01-27T01:24:01.091Z,95917.97
2023-01-27T01:25:02.673Z,95919.69
2023-01-27T01:26:04.490Z,95928.88
2023-01-27T01:27:06.041Z,95917.03
2023-01-27T01:28:08.528Z,95918.59
2023-01-27T01:29:10.052Z,95919.34
2023-01-27T01:30:12.794Z,95918.25
2023-01-27T01:31:18.079Z,95920.75
2023-01-27T01:32:19.684Z,95922.47
2023-01-27T01:33:21.463Z,95917.34
2023-01-27T01:34:22.960Z,95912.50
2023-01-27T01:35:25.280Z,95914.06
2023-01-27T01:36:27.177Z,95912.97
2023-01-27T01:37:28.798Z,95908.59
2023-01-27T01:38:30.358Z,95902.69
2023-01-27T01:39:32.319Z,95902.06
2023-01-27T01:40:34.295Z,95893.81
2023-01-27T01:41:35.882Z,95889.28
2023-01-27T01:42:57.895Z,95889.88
2023-01-27T01:43:59.564Z,95884.28
2023-01-27T01:45:31.747Z,95872.72
2023-01-27T01:46:33.326Z,95878.66
2023-01-27T01:47:34.925Z,95875.69
2023-01-27T01:49:02.654Z,95868.97
2023-01-27T01:50:04.515Z,95870.53
2023-01-27T01:51:18.273Z,95876.81
2023-01-27T01:52:21.332Z,95864.00
2023-01-27T01:53:29.458Z,95868.69
2023-01-27T01:54:37.602Z,95871.19
2023-01-27T01:55:40.804Z,95868.38
2023-01-27T01:56:51.446Z,95860.28
2023-01-27T01:57:53.348Z,95865.06
2023-01-27T01:59:00.616Z,95861.66
2023-01-27T02:00:07.106Z,95861.78
2023-01-27T02:01:08.796Z,95864.16
2023-01-27T02:02:18.192Z,95871.31
2023-01-27T02:03:22.759Z,95870.41
2023-01-27T02:04:31.965Z,95874.44
2023-01-27T02:05:36.651Z,95875.84
2023-01-27T02:06:45.716Z,95866.00
2023-01-27T02:07:55.509Z,95873.22
2023-01-27T02:08:57.236Z,95879.13
2023-01-27T02:10:00.295Z,95876.19
2023-01-27T02:11:01.899Z,95876.94
2023-01-27T02:12:03.775Z,95879.00
2023-01-27T02:13:05.334Z,95877.25
2023-01-27T02:14:08.313Z,95879.13
2023-01-27T02:15:11.305Z,95886.31
2023-01-27T02:16:13.796Z,95883.03
2023-01-27T02:17:15.782Z,95888.97
2023-01-27T02:18:17.447Z,95882.56
2023-01-27T02:19:42.473Z,95892.22
2023-01-27T02:20:46.693Z,95887.25
2023-01-27T02:21:51.133Z,95892.41
2023-01-27T02:23:01.773Z,95889.59
2023-01-27T02:24:12.297Z,95890.53
2023-01-27T02:25:22.762Z,95894.13
2023-01-27T02:26:34.568Z,95885.22
2023-01-27T02:27:36.151Z,95886.78
2023-01-27T02:28:37.707Z,95890.53
2023-01-27T02:29:39.224Z,95885.81
2023-01-27T02:30:40.811Z,95883.66
2023-01-27T02:31:43.151Z,95880.38
2023-01-27T02:32:44.790Z,95883.97
2023-01-27T02:33:46.267Z,95880.38
2023-01-27T02:34:48.028Z,95880.84
2023-01-27T02:35:59.246Z,95876.78
2023-01-27T02:37:06.135Z,95876.63
2023-01-27T02:38:11.487Z,95867.75
2023-01-27T02:39:15.455Z,95866.47
2023-01-27T02:40:18.784Z,95866.78
2023-01-27T02:41:20.236Z,95859.00
2023-01-27T02:42:21.826Z,95864.00
2023-01-27T02:43:23.474Z,95858.34
2023-01-27T02:44:25.031Z,95856.78
2023-01-27T02:45:26.866Z,95854.13
2023-01-27T02:46:28.539Z,95851.78
2023-01-27T02:47:30.175Z,95857.22
2023-01-27T02:48:31.831Z,95860.50
2023-01-27T02:49:33.393Z,95858.06
2023-01-27T02:50:34.960Z,95861.00
2023-01-27T02:51:36.565Z,95852.75
2023-01-27T02:52:38.120Z,95841.19
2023-01-27T02:53:40.404Z,95843.53
2023-01-27T02:54:41.956Z,95838.25
2023-01-27T02:55:43.514Z,95843.22
2023-01-27T02:56:45.252Z,95832.47
2023-01-27T02:57:46.851Z,95830.59
2023-01-27T02:58:48.526Z,95824.66
2023-01-27T02:59:50.258Z,95828.25
2023-01-27T03:00:51.961Z,95819.69
2023-01-27T03:01:53.607Z,95830.16
2023-01-27T03:02:55.178Z,95822.06
2023-01-27T03:03:56.703Z,95818.78
2023-01-27T03:04:58.335Z,95818.16
2023-01-27T03:06:00.003Z,95818.78
2023-01-27T03:07:01.523Z,95812.56
2023-01-27T03:08:03.145Z,95816.16
2023-01-27T03:09:07.617Z,95814.91
2023-01-27T03:10:10.201Z,95811.63
2023-01-27T03:11:12.099Z,95820.34
2023-01-27T03:12:22.828Z,95812.41
2023-01-27T03:13:25.506Z,95808.16
2023-01-27T03:14:45.468Z,95789.31
2023-01-27T03:16:05.796Z,95790.88
2023-01-27T03:17:25.975Z,95786.34
2023-01-27T03:18:27.554Z,95794.47
2023-01-27T03:19:29.152Z,95798.81
2023-01-27T03:20:30.785Z,95796.97
2023-01-27T03:21:32.339Z,95798.69
2023-01-27T03:22:33.856Z,95808.81
2023-01-27T03:23:35.528Z,95806.31
2023-01-27T03:24:39.532Z,95809.28
2023-01-27T03:25:45.951Z,95804.16
2023-01-27T03:26:47.695Z,95801.63
2023-01-27T03:27:50.029Z,95802.25
2023-01-27T03:29:11.548Z,95796.31
2023-01-27T03:30:13.210Z,95776.81
2023-01-27T03:31:20.878Z,95789.78
2023-01-27T03:32:28.039Z,95784.16
2023-01-27T03:33:29.745Z,95789.16
2023-01-27T03:34:31.382Z,95799.13
2023-01-27T03:35:39.148Z,95793.19
2023-01-27T03:36:59.737Z,95793.66
2023-01-27T03:38:19.861Z,95791.50
2023-01-27T03:39:39.747Z,95801.44
2023-01-27T03:41:00.035Z,95801.94
2023-01-27T03:42:20.161Z,95802.69
2023-01-27T03:43:39.975Z,95803.47
2023-01-27T03:45:00.136Z,95803.47
2023-01-27T03:46:20.137Z,95803.47
2023-01-27T03:47:21.740Z,95813.78
2023-01-27T03:48:23.553Z,95809.13
2023-01-27T03:49:25.216Z,95821.91
2023-01-27T03:50:37.592Z,95821.59
2023-01-27T03:51:39.515Z,95824.72
2023-01-27T03:52:41.465Z,95827.50
2023-01-27T03:53:43.062Z,95820.97
2023-01-27T03:54:44.586Z,95824.06
2023-01-27T03:55:47.032Z,95820.34
2023-01-27T03:56:48.583Z,95825.81
2023-01-27T03:57:50.118Z,95825.19
2023-01-27T03:58:51.741Z,95823.78
2023-01-27T03:59:53.298Z,95831.25
2023-01-27T04:01:17.763Z,95834.53
2023-01-27T04:02:37.853Z,95836.56
2023-01-27T04:03:58.217Z,95844.66
2023-01-27T04:05:18.179Z,95845.91
2023-01-27T04:06:41.495Z,95849.66
2023-01-27T04:07:43.060Z,95850.13
2023-01-27T04:08:44.680Z,95860.25
2023-01-27T04:09:46.235Z,95863.53
2023-01-27T04:11:07.711Z,95861.00
2023-01-27T04:12:10.163Z,95862.94
2023-01-27T04:13:11.738Z,95856.94
2023-01-27T04:14:13.538Z,95848.03
2023-01-27T04:15:15.409Z,95852.81
2023-01-27T04:16:19.927Z,95851.41
2023-01-27T04:17:22.180Z,95851.31
2023-01-27T04:18:23.713Z,95841.84
2023-01-27T04:19:25.890Z,95841.84
2023-01-27T04:20:27.677Z,95846.34
2023-01-27T04:21:29.614Z,95842.63
2023-01-27T04:22:31.582Z,95845.19
2023-01-27T04:23:33.315Z,95840.06
2023-01-27T04:24:34.978Z,95837.44
2023-01-27T04:25:36.526Z,95842.59
2023-01-27T04:26:38.548Z,95840.75
2023-01-27T04:27:40.120Z,95841.53
2023-01-27T04:28:44.678Z,95839.22
2023-01-27T04:29:46.400Z,95837.94
2023-01-27T04:30:48.029Z,95827.97
2023-01-27T04:31:50.208Z,95821.13
2023-01-27T04:32:51.839Z,95819.56
2023-01-27T04:33:53.738Z,95810.06
2023-01-27T04:34:55.365Z,95813.34
2023-01-27T04:35:56.940Z,95799.78
2023-01-27T04:36:58.804Z,95798.19
2023-01-27T04:38:00.351Z,95812.88
2023-01-27T04:39:01.988Z,95816.91
2023-01-27T04:40:03.928Z,95831.81
2023-01-27T04:41:05.640Z,95836.00
2023-01-27T04:42:07.245Z,95838.41
2023-01-27T04:43:11.556Z,95836.03
2023-01-27T04:44:13.445Z,95842.06
2023-01-27T04:45:16.267Z,95831.38
2023-01-27T04:46:17.844Z,95834.25
2023-01-27T04:47:19.351Z,95844.25
2023-01-27T04:48:21.792Z,95840.38
2023-01-27T04:49:23.486Z,95847.38
2023-01-27T04:50:25.005Z,95840.88
2023-01-27T04:51:27.267Z,95831.59
2023-01-27T04:52:28.837Z,95829.59
2023-01-27T04:53:30.415Z,95829.78
2023-01-27T04:54:31.973Z,95819.38
2023-01-27T04:55:33.579Z,95833.41
2023-01-27T04:56:41.129Z,95841.97
2023-01-27T04:57:42.649Z,95845.88
2023-01-27T04:58:44.177Z,95850.56
2023-01-27T04:59:45.695Z,95847.31
2023-01-27T05:00:47.235Z,95849.81
2023-01-27T05:01:48.845Z,95850.75
2023-01-27T05:02:50.411Z,95854.31
2023-01-27T05:03:51.988Z,95851.81
2023-01-27T05:04:53.621Z,95863.66
2023-01-27T05:05:55.170Z,95864.59
2023-01-27T05:06:56.729Z,95857.28
2023-01-27T05:08:05.963Z,95855.25
2023-01-27T05:09:07.490Z,95861.97
2023-01-27T05:10:09.809Z,95856.19
2023-01-27T05:11:12.036Z,95866.50
2023-01-27T05:12:13.565Z,95864.59
2023-01-27T05:13:15.118Z,95861.34
2023-01-27T05:14:16.763Z,95857.75
2023-01-27T05:15:18.277Z,95852.47
2023-01-27T05:16:23.725Z,95853.53
2023-01-27T05:17:27.802Z,95852.78
2023-01-27T05:18:29.354Z,95850.75
2023-01-27T05:19:32.266Z,95852.31
2023-01-27T05:20:34.142Z,95852.78
2023-01-27T05:21:35.704Z,95854.81
2023-01-27T05:22:37.211Z,95865.25
2023-01-27T05:23:39.115Z,95868.38
2023-01-27T05:24:41.043Z,95879.75
2023-01-27T05:25:46.009Z,95884.44
2023-01-27T05:26:47.616Z,95881.94
2023-01-27T05:27:49.138Z,95883.34
2023-01-27T05:28:52.246Z,95879.59
2023-01-27T05:29:53.852Z,95879.75
2023-01-27T05:31:08.788Z,95878.34
2023-01-27T05:32:10.388Z,95879.59
2023-01-27T05:33:11.994Z,95874.28
2023-01-27T05:34:13.559Z,95870.84
2023-01-27T05:35:15.433Z,95874.94
2023-01-27T05:36:18.884Z,95874.75
2023-01-27T05:37:20.546Z,95871.94
2023-01-27T05:38:22.128Z,95869.13
2023-01-27T05:39:23.681Z,95865.56
2023-01-27T05:40:25.304Z,95872.38
2023-01-27T05:41:31.024Z,95869.44
2023-01-27T05:42:32.560Z,95869.09
2023-01-27T05:43:36.493Z,95870.66
2023-01-27T05:44:37.993Z,95870.66
2023-01-27T05:45:39.553Z,95872.03
2023-01-27T05:46:42.214Z,95878.09
2023-01-27T05:47:43.763Z,95875.91
2023-01-27T05:48:48.516Z,95885.88
2023-01-27T05:49:50.052Z,95891.50
2023-01-27T05:50:56.797Z,95884.19
2023-01-27T05:51:58.353Z,95880.63
2023-01-27T05:52:59.882Z,95862.72
2023-01-27T05:54:02.013Z,95860.56
2023-01-27T05:55:04.163Z,95857.41
2023-01-27T05:56:06.563Z,95857.84
2023-01-27T05:57:08.138Z,95845.41
2023-01-27T05:58:09.714Z,95843.19
2023-01-27T05:59:11.471Z,95849.75
2023-01-27T06:00:13.566Z,95864.25
2023-01-27T06:01:19.639Z,95863.75
2023-01-27T06:02:22.774Z,95873.44
2023-01-27T06:03:25.202Z,95879.81
2023-01-27T06:04:26.903Z,95878.19
2023-01-27T06:05:28.504Z,95875.44
2023-01-27T06:06:32.006Z,95877.69
2023-01-27T06:07:33.539Z,95881.16
2023-01-27T06:08:36.131Z,95871.09
2023-01-27T06:09:38.850Z,95878.47
2023-01-27T06:10:40.455Z,95876.47
2023-01-27T06:11:42.004Z,95880.34
2023-01-27T06:12:43.530Z,95884.63
2023-01-27T06:13:45.221Z,95888.84
2023-01-27T06:14:46.810Z,95891.16
2023-01-27T06:15:48.699Z,95892.91
2023-01-27T06:16:50.370Z,95885.78
2023-01-27T06:17:52.870Z,95873.31
2023-01-27T06:18:54.527Z,95875.66
2023-01-27T06:19:56.087Z,95869.13
2023-01-27T06:21:02.241Z,95868.19
2023-01-27T06:22:03.774Z,95871.47
2023-01-27T06:23:06.685Z,95872.41
2023-01-27T06:24:08.362Z,95869.63
2023-01-27T06:25:10.048Z,95875.84
2023-01-27T06:26:16.343Z,95879.91
2023-01-27T06:27:17.907Z,95886.13
2023-01-27T06:28:28.912Z,95888.50
2023-01-27T06:29:30.952Z,95891.78
2023-01-27T06:30:34.516Z,95897.06
2023-01-27T06:31:36.172Z,95898.00
2023-01-27T06:32:37.733Z,95897.50
2023-01-27T06:33:39.618Z,95902.50
2023-01-27T06:34:41.113Z,95897.06
2023-01-27T06:35:42.793Z,95883.66
2023-01-27T06:36:44.284Z,95888.00
2023-01-27T06:37:45.889Z,95885.19
2023-01-27T06:38:48.615Z,95882.88
2023-01-27T06:39:50.159Z,95883.81
2023-01-27T06:40:51.698Z,95879.28
2023-01-27T06:41:53.201Z,95881.63
2023-01-27T06:42:55.353Z,95888.63
2023-01-27T06:43:56.964Z,95884.25
2023-01-27T06:44:58.539Z,95880.03
2023-01-27T06:46:00.372Z,95890.03
2023-01-27T06:47:02.406Z,95885.84
2023-01-27T06:48:04.245Z,95887.06
2023-01-27T06:49:05.858Z,95890.66
2023-01-27T06:50:09.318Z,95892.06
2023-01-27T06:51:10.863Z,95892.38
2023-01-27T06:52:12.472Z,95886.00
2023-01-27T06:53:14.109Z,95888.78
2023-01-27T06:54:16.236Z,95891.47
2023-01-27T06:55:19.174Z,95899.72
2023-01-27T06:56:20.699Z,95895.03
2023-01-27T06:57:22.301Z,95892.53
2023-01-27T06:58:24.644Z,95892.41
2023-01-27T06:59:26.254Z,95889.09
2023-01-27T07:00:27.889Z,95885.97
2023-01-27T07:01:29.490Z,95885.50
2023-01-27T07:02:31.157Z,95885.50
2023-01-27T07:04:34.424Z,95887.06
2023-01-27T07:05:36.091Z,95883.63
2023-01-27T07:06:38.174Z,95878.94
2023-01-27T07:07:40.085Z,95879.88
2023-01-27T07:08:42.507Z,95877.06
2023-01-27T07:09:52.318Z,95873.75
2023-01-27T07:10:54.348Z,95881.72
2023-01-27T07:11:56.141Z,95880.19
2023-01-27T07:13:08.820Z,95882.22
2023-01-27T07:14:10.735Z,95879.22
2023-01-27T07:15:12.729Z,95883.63
2023-01-27T07:16:14.351Z,95884.84
2023-01-27T07:17:15.937Z,95877.50
2023-01-27T07:18:17.542Z,95878.41
2023-01-27T07:19:19.064Z,95880.75
2023-01-27T07:20:20.787Z,95880.13
2023-01-27T07:21:22.317Z,95880.72
2023-01-27T07:22:23.891Z,95869.75
2023-01-27T07:23:25.552Z,95877.19
2023-01-27T07:24:27.137Z,95869.66
2023-01-27T07:25:30.683Z,95871.22
2023-01-27T07:26:32.255Z,95869.66
2023-01-27T07:27:34.446Z,95879.50
2023-01-27T07:28:35.975Z,95878.72
2023-01-27T07:29:37.472Z,95882.69
2023-01-27T07:30:39.393Z,95893.34
2023-01-27T07:31:41.131Z,95889.22
2023-01-27T07:32:42.748Z,95892.94
2023-01-27T07:33:44.258Z,95899.19
2023-01-27T07:34:45.880Z,95893.88
2023-01-27T07:35:49.826Z,95906.38
2023-01-27T07:36:51.973Z,95905.97
2023-01-27T07:37:53.452Z,95906.38
2023-01-27T07:38:55.031Z,95900.50
2023-01-27T07:39:56.604Z,95896.59
2023-01-27T07:40:58.631Z,95890.34
2023-01-27T07:42:03.771Z,95890.81
2023-01-27T07:43:05.323Z,95888.97
2023-01-27T07:44:06.951Z,95887.84
2023-01-27T07:45:09.588Z,95880.50
2023-01-27T07:46:11.196Z,95875.34
2023-01-27T07:47:12.845Z,95877.22
2023-01-27T07:48:14.873Z,95864.56
2023-01-27T07:49:16.448Z,95868.63
2023-01-27T07:50:18.138Z,95867.69
2023-01-27T07:51:19.754Z,95869.44
2023-01-27T07:52:21.359Z,95868.03
2023-01-27T07:53:22.981Z,95864.16
2023-01-27T07:54:25.303Z,95863.81
2023-01-27T07:55:27.083Z,95858.97
2023-01-27T07:56:28.661Z,95861.00
2023-01-27T07:57:30.237Z,95857.09
2023-01-27T07:58:31.763Z,95858.78
2023-01-27T07:59:33.455Z,95858.97
2023-01-27T08:00:35.392Z,95873.94
2023-01-27T08:01:37.591Z,95870.69
2023-01-27T08:02:39.195Z,95874.44
2023-01-27T08:03:40.768Z,95872.84
2023-01-27T08:04:52.482Z,95872.38
2023-01-27T08:05:54.973Z,95870.50
2023-01-27T08:06:56.509Z,95868.75
2023-01-27T08:07:59.080Z,95874.19
2023-01-27T08:09:00.736Z,95881.56
2023-01-27T08:10:02.298Z,95885.44
2023-01-27T08:11:08.111Z,95881.25
2023-01-27T08:12:09.713Z,95879.50
2023-01-27T08:13:11.266Z,95889.47
2023-01-27T08:14:12.812Z,95892.31
2023-01-27T08:15:15.515Z,95884.69
2023-01-27T08:16:18.731Z,95890.00
2023-01-27T08:17:20.278Z,95883.91
2023-01-27T08:18:21.813Z,95894.81
2023-01-27T08:19:23.328Z,95887.81
2023-01-27T08:20:27.203Z,95886.72
2023-01-27T08:21:32.871Z,95885.44
2023-01-27T08:22:34.423Z,95884.16
2023-01-27T08:23:36.165Z,95885.75
2023-01-27T08:24:37.729Z,95879.19
2023-01-27T08:25:39.377Z,95880.91
2023-01-27T08:26:41.014Z,95872.00
2023-01-27T08:27:42.663Z,95870.72
2023-01-27T08:28:44.440Z,95865.41
2023-01-27T08:29:46.362Z,95876.03
2023-01-27T08:30:48.398Z,95868.53
2023-01-27T08:31:49.999Z,95872.44
2023-01-27T08:32:51.591Z,95873.69
2023-01-27T08:33:54.444Z,95865.06
2023-01-27T08:34:56.079Z,95856.00
2023-01-27T08:36:03.185Z,95858.50
2023-01-27T08:37:05.908Z,95855.66
2023-01-27T08:38:07.540Z,95854.25
2023-01-27T08:39:10.417Z,95858.13
2023-01-27T08:40:12.683Z,95863.44
2023-01-27T08:41:17.048Z,95862.78
2023-01-27T08:42:18.651Z,95865.28
2023-01-27T08:43:20.899Z,95867.94
2023-01-27T08:44:22.768Z,95872.94
2023-01-27T08:45:24.383Z,95880.47
2023-01-27T08:46:26.068Z,95881.44
2023-01-27T08:47:27.653Z,95880.66
2023-01-27T08:48:31.095Z,95896.66
2023-01-27T08:49:32.699Z,95893.41
2023-01-27T08:50:34.390Z,95891.53
2023-01-27T08:51:35.931Z,95884.03
2023-01-27T08:52:37.827Z,95882.59
2023-01-27T08:53:39.628Z,95877.47
2023-01-27T08:54:41.202Z,95873.41
2023-01-27T08:55:42.989Z,95869.03
2023-01-27T08:56:44.635Z,95872.28
2023-01-27T08:57:46.203Z,95869.16
2023-01-27T08:58:48.605Z,95869.47
2023-01-27T08:59:50.156Z,95873.34
2023-01-27T09:00:51.735Z,95877.25
2023-01-27T09:01:53.248Z,95873.50
2023-01-27T09:02:54.886Z,95871.78
2023-01-27T09:03:56.493Z,95865.38
2023-01-27T09:04:58.000Z,95869.72
2023-01-27T09:05:59.949Z,95859.22
2023-01-27T09:07:01.527Z,95857.47
2023-01-27T09:08:04.032Z,95861.41
2023-01-27T09:09:12.307Z,95859.34
2023-01-27T09:10:15.678Z,95860.25
2023-01-27T09:11:18.088Z,95863.38
2023-01-27T09:12:19.814Z,95865.19
2023-01-27T09:13:22.488Z,95867.66
2023-01-27T09:14:24.075Z,95864.00
2023-01-27T09:15:25.596Z,95864.34
2023-01-27T09:16:27.188Z,95866.41
2023-01-27T09:17:28.808Z,95863.91
2023-01-27T09:18:30.416Z,95862.63
2023-01-27T09:19:32.284Z,95861.25
2023-01-27T09:20:37.061Z,95866.09
2023-01-27T09:21:38.631Z,95865.91
2023-01-27T09:22:41.228Z,95870.59
2023-01-27T09:23:42.786Z,95861.69
2023-01-27T09:24:44.664Z,95866.84
2023-01-27T09:25:46.200Z,95865.41
2023-01-27T09:26:47.801Z,95858.47
2023-01-27T09:27:49.610Z,95863.66
2023-01-27T09:28:51.123Z,95864.25
2023-01-27T09:29:52.719Z,95868.28
2023-01-27T09:30:57.945Z,95867.03
2023-01-27T09:31:59.569Z,95866.41
2023-01-27T09:33:01.644Z,95853.13
2023-01-27T09:34:04.576Z,95865.63
2023-01-27T09:35:06.536Z,95853.75
2023-01-27T09:36:19.001Z,95854.19
2023-01-27T09:37:20.634Z,95849.00
2023-01-27T09:38:23.945Z,95845.09
2023-01-27T09:39:26.638Z,95845.88
2023-01-27T09:40:32.452Z,95846.78
2023-01-27T09:41:36.790Z,95853.00
2023-01-27T09:43:09.328Z,95847.50
2023-01-27T09:44:13.827Z,95849.78
2023-01-27T09:45:27.471Z,95854.72
2023-01-27T09:46:38.070Z,95853.50
2023-01-27T09:47:51.810Z,95859.56
2023-01-27T09:49:20.226Z,95855.34
2023-01-27T09:50:47.146Z,95859.41
2023-01-27T09:52:11.628Z,95853.31
2023-01-27T09:53:22.440Z,95845.00
2023-01-27T09:54:33.083Z,95844.81
2023-01-27T09:55:44.770Z,95845.59
2023-01-27T09:57:16.729Z,95844.19
2023-01-27T09:58:46.442Z,95841.94
2023-01-27T09:59:50.923Z,95842.56
2023-01-27T10:01:17.265Z,95839.72
2023-01-27T10:02:30.972Z,95842.69
2023-01-27T10:03:53.144Z,95837.31
2023-01-27T10:05:36.667Z,95839.28
2023-01-27T10:07:00.309Z,95839.59
2023-01-27T10:08:40.814Z,95834.19
2023-01-27T10:10:20.468Z,95829.38
2023-01-27T10:11:33.059Z,95826.28
2023-01-27T10:12:41.135Z,95821.91
2023-01-27T10:14:05.894Z,95824.41
2023-01-27T10:15:32.708Z,95829.03
2023-01-27T10:16:37.176Z,95828.72
2023-01-27T10:18:08.475Z,95830.56
2023-01-27T10:19:15.690Z,95821.47
2023-01-27T10:20:35.706Z,95819.69
2023-01-27T10:21:43.817Z,95820.75
2023-01-27T10:23:00.172Z,95818.53
2023-01-27T10:24:18.370Z,95811.41
2023-01-27T10:25:38.241Z,95813.94
2023-01-27T10:26:45.949Z,95806.44
2023-01-27T10:27:51.341Z,95811.53
2023-01-27T10:29:03.192Z,95805.09
2023-01-27T10:30:15.945Z,95807.06
2023-01-27T10:31:17.789Z,95804.38
2023-01-27T10:32:27.204Z,95807.44
2023-01-27T10:33:54.423Z,95812.72
2023-01-27T10:35:09.377Z,95804.56
2023-01-27T10:36:21.860Z,95810.13
2023-01-27T10:37:47.631Z,95817.47
2023-01-27T10:39:21.103Z,95813.44
2023-01-27T10:40:29.563Z,95808.25
2023-01-27T10:41:31.108Z,95808.13
2023-01-27T10:43:16.652Z,95798.97
2023-01-27T10:44:22.086Z,95797.69
2023-01-27T10:45:30.031Z,95796.41
2023-01-27T10:46:41.531Z,95792.25
2023-01-27T10:47:51.215Z,95786.56
2023-01-27T10:49:23.995Z,95787.88
2023-01-27T10:50:30.931Z,95783.94
2023-01-27T10:51:37.779Z,95787.50
2023-01-27T10:52:46.617Z,95786.19
2023-01-27T10:53:51.031Z,95783.34
2023-01-27T10:55:17.715Z,95779.69
2023-01-27T10:56:35.903Z,95777.19
2023-01-27T10:57:41.813Z,95780.94
2023-01-27T10:58:46.252Z,95776.41
2023-01-27T11:00:05.307Z,95780.72
2023-01-27T11:01:20.760Z,95776.03
2023-01-27T11:02:37.824Z,95770.19
2023-01-27T11:03:48.713Z,95770.28
2023-01-27T11:04:56.696Z,95770.72
2023-01-27T11:06:03.151Z,95766.31
2023-01-27T11:07:06.685Z,95763.78
2023-01-27T11:08:21.030Z,95772.22
2023-01-27T11:09:29.270Z,95767.63
2023-01-27T11:10:39.098Z,95770.19
2023-01-27T11:11:46.165Z,95768.31
2023-01-27T11:12:54.606Z,95770.66
2023-01-27T11:14:07.124Z,95763.09
2023-01-27T11:15:30.321Z,95758.56
2023-01-27T11:16:40.153Z,95760.91
2023-01-27T11:18:07.414Z,95761.78
2023-01-27T11:19:30.889Z,95758.13
2023-01-27T11:21:01.521Z,95755.81
2023-01-27T11:22:10.304Z,95758.28
2023-01-27T11:23:21.159Z,95755.72
2023-01-27T11:24:39.442Z,95746.28
2023-01-27T11:26:11.715Z,95746.06
2023-01-27T11:27:25.481Z,95747.44
2023-01-27T11:28:52.100Z,95743.69
2023-01-27T11:30:08.533Z,95739.28
2023-01-27T11:31:38.214Z,95739.28
2023-01-27T11:33:15.215Z,95748.28
2023-01-27T11:34:24.849Z,95748.69
2023-01-27T11:35:26.731Z,95753.78
2023-01-27T11:36:28.339Z,95748.84
2023-01-27T11:37:37.313Z,95756.31
2023-01-27T11:38:38.905Z,95749.03
2023-01-27T11:39:40.525Z,95748.81
2023-01-27T11:40:42.711Z,95753.28
2023-01-27T11:41:52.168Z,95752.88
2023-01-27T11:42:59.806Z,95755.00
2023-01-27T11:44:06.390Z,95752.44
2023-01-27T11:45:14.783Z,95758.81
2023-01-27T11:46:24.364Z,95752.16
2023-01-27T11:47:38.747Z,95758.03
2023-01-27T11:48:47.426Z,95755.81
2023-01-27T11:49:52.314Z,95749.81
2023-01-27T11:50:53.908Z,95750.72
2023-01-27T11:52:15.649Z,95754.47
2023-01-27T11:53:17.398Z,95754.47
2023-01-27T11:54:23.583Z,95751.38
2023-01-27T11:55:32.095Z,95750.56
2023-01-27T11:56:36.461Z,95748.25
2023-01-27T11:57:42.793Z,95755.47
2023-01-27T11:59:00.191Z,95752.03
2023-01-27T12:00:08.102Z,95753.47
2023-01-27T12:01:22.504Z,95750.47
2023-01-27T12:02:44.414Z,95752.88
2023-01-27T12:04:22.005Z,95749.31
2023-01-27T12:05:48.810Z,95745.09
2023-01-27T12:06:59.532Z,95738.38
2023-01-27T12:08:03.802Z,95747.75
2023-01-27T12:09:05.387Z,95738.38
2023-01-27T12:10:38.809Z,95743.91
2023-01-27T12:11:40.399Z,95744.03
2023-01-27T12:12:44.492Z,95738.03
2023-01-27T12:13:56.092Z,95740.19
2023-01-27T12:15:03.061Z,95733.84
2023-01-27T12:16:05.569Z,95733.19
2023-01-27T12:17:08.623Z,95740.38
2023-01-27T12:18:14.981Z,95740.03
2023-01-27T12:19:28.641Z,95735.94
2023-01-27T12:20:32.965Z,95734.16
2023-01-27T12:21:48.178Z,95740.72
2023-01-27T12:23:01.073Z,95734.94
2023-01-27T12:24:03.345Z,95732.41
2023-01-27T12:25:14.038Z,95735.03
2023-01-27T12:26:16.124Z,95737.59
2023-01-27T12:27:24.454Z,95737.72
2023-01-27T12:28:33.786Z,95733.28
2023-01-27T12:29:47.891Z,95736.56
2023-01-27T12:30:51.411Z,95729.03
2023-01-27T12:31:55.864Z,95722.59
2023-01-27T12:32:58.956Z,95727.59
2023-01-27T12:34:08.181Z,95724.22
2023-01-27T12:35:20.692Z,95725.97
2023-01-27T12:36:23.539Z,95725.97
2023-01-27T12:37:33.234Z,95727.34
2023-01-27T12:38:36.524Z,95726.09
2023-01-27T12:39:57.374Z,95726.25
2023-01-27T12:41:10.377Z,95731.22
2023-01-27T12:42:35.932Z,95721.38
2023-01-27T12:44:07.633Z,95730.91
2023-01-27T12:45:35.026Z,95721.25
2023-01-27T12:46:40.498Z,95728.91
2023-01-27T12:47:58.707Z,95722.66
2023-01-27T12:49:20.711Z,95712.19
2023-01-27T12:50:31.829Z,95717.63
2023-01-27T12:51:41.034Z,95719.28
2023-01-27T12:52:42.707Z,95713.63
2023-01-27T12:53:44.336Z,95709.41
2023-01-27T12:54:46.296Z,95708.00